Time;durP1;ratioP1;P1;durP2;ratioP2;P2;SDS_P1;SDS_P2;PMS_P1;PMS_P2;Temp;Humidity;BMP_temperature;BMP_pressure;BME280_temperature;BME280_humidity;BME280_pressure;Samples;Min_cycle;Max_cycle;Signal;HPM_P1;HPM_P2
2024/04/10 00:00:48;;;;;;;1.75;1.52;;;;;;;;;;5299058;26;19993;-74
2024/04/10 00:03:17;;;;;;;4.25;2.28;;;;;;;;;;5299758;26;20363;-74
2024/04/10 00:05:43;;;;;;;3.55;1.35;;;;;;;;;;5299847;26;20457;-74
2024/04/10 00:08:09;;;;;;;0.43;0.43;;;;;;;;;;5286351;27;20883;-74
2024/04/10 00:10:35;;;;;;;3.63;2.63;;;;;;;;;;5292955;26;20006;-74
2024/04/10 00:13:01;;;;;;;1.17;1.00;;;;;;;;;;5299887;26;20087;-75
2024/04/10 00:15:26;;;;;;;2.08;1.42;;;;;;;;;;5301557;27;20475;-74
2024/04/10 00:17:52;;;;;;;2.67;2.45;;;;;;;;;;5319061;26;20005;-74
2024/04/10 00:20:18;;;;;;;2.65;1.35;;;;;;;;;;5316655;26;19997;-74
2024/04/10 00:22:44;;;;;;;1.60;1.30;;;;;;;;;;5332511;26;20091;-74
2024/04/10 00:25:09;;;;;;;1.40;1.30;;;;;;;;;;5330230;26;20004;-74
2024/04/10 00:27:35;;;;;;;4.07;2.58;;;;;;;;;;5342759;26;20004;-74
2024/04/10 00:30:00;;;;;;;0.70;0.70;;;;;;;;;;5303739;26;20004;-74
2024/04/10 00:32:26;;;;;;;2.00;1.63;;;;;;;;;;5346213;26;20008;-75
2024/04/10 00:34:52;;;;;;;1.73;1.20;;;;;;;;;;5328701;26;20092;-75
2024/04/10 00:37:18;;;;;;;1.25;1.15;;;;;;;;;;5334363;26;20005;-75
2024/04/10 00:39:44;;;;;;;2.15;1.95;;;;;;;;;;5338837;26;20067;-77
2024/04/10 00:42:09;;;;;;;1.92;1.77;;;;;;;;;;5306452;26;20000;-75
2024/04/10 00:44:51;;;;;;;1.52;1.42;;;;;;;;;;5339160;26;20006;-74
2024/04/10 00:47:17;;;;;;;1.40;1.20;;;;;;;;;;5334512;26;20075;-74
2024/04/10 00:49:43;;;;;;;3.60;2.78;;;;;;;;;;5338915;26;20332;-75
2024/04/10 00:52:09;;;;;;;1.98;1.85;;;;;;;;;;5335249;26;20015;-74
2024/04/10 00:54:35;;;;;;;4.07;1.92;;;;;;;;;;5338428;26;20011;-73
2024/04/10 00:57:01;;;;;;;1.80;1.70;;;;;;;;;;5326823;26;20012;-75
2024/04/10 00:59:27;;;;;;;2.83;2.40;;;;;;;;;;5343035;26;20366;-73
2024/04/10 01:01:53;;;;;;;2.45;0.88;;;;;;;;;;5333496;26;20009;-74
2024/04/10 01:04:18;;;;;;;1.63;0.80;;;;;;;;;;5330029;26;20009;-73
2024/04/10 01:06:44;;;;;;;2.10;1.90;;;;;;;;;;5323902;26;20460;-73
2024/04/10 01:09:10;;;;;;;4.43;1.50;;;;;;;;;;5323524;26;20499;-74
2024/04/10 01:11:36;;;;;;;0.70;0.65;;;;;;;;;;5337052;26;20120;-74
2024/04/10 01:14:01;;;;;;;4.22;2.50;;;;;;;;;;5308755;26;20012;-75
2024/04/10 01:16:27;;;;;;;2.05;1.85;;;;;;;;;;5329164;26;19997;-74
2024/04/10 01:18:53;;;;;;;2.58;2.15;;;;;;;;;;5347344;26;20020;-74
2024/04/10 01:21:18;;;;;;;1.38;1.27;;;;;;;;;;5323712;26;20020;-73
2024/04/10 01:23:44;;;;;;;1.35;1.25;;;;;;;;;;5336332;26;20460;-74
2024/04/10 01:26:10;;;;;;;2.13;1.30;;;;;;;;;;5344313;26;19993;-75
2024/04/10 01:28:36;;;;;;;2.67;1.30;;;;;;;;;;5303032;26;20031;-75
2024/04/10 01:31:01;;;;;;;12.82;1.45;;;;;;;;;;5341226;26;19997;-73
2024/04/10 01:33:27;;;;;;;5.50;2.92;;;;;;;;;;5343370;26;19997;-75
2024/04/10 01:35:53;;;;;;;2.08;1.88;;;;;;;;;;5333035;26;20696;-75
2024/04/10 01:38:18;;;;;;;1.02;0.73;;;;;;;;;;5320529;26;20001;-74
2024/04/10 01:40:44;;;;;;;2.78;2.03;;;;;;;;;;5337017;26;20001;-75
2024/04/10 01:43:10;;;;;;;2.55;1.70;;;;;;;;;;5326113;26;20016;-75
2024/04/10 01:45:36;;;;;;;5.43;3.50;;;;;;;;;;5333216;26;20041;-75
2024/04/10 01:48:03;;;;;;;1.25;0.98;;;;;;;;;;5332373;26;20029;-75
2024/04/10 01:50:29;;;;;;;0.95;0.70;;;;;;;;;;5323136;26;20005;-75
2024/04/10 01:52:54;;;;;;;2.10;1.80;;;;;;;;;;5335185;26;20037;-75
2024/04/10 01:55:20;;;;;;;1.52;1.42;;;;;;;;;;5326949;26;19997;-75
2024/04/10 01:57:46;;;;;;;1.80;1.70;;;;;;;;;;5320757;26;20005;-75
2024/04/10 02:00:11;;;;;;;0.88;0.88;;;;;;;;;;5338897;26;20012;-74
2024/04/10 02:02:38;;;;;;;2.00;1.80;;;;;;;;;;5340893;26;20351;-76
2024/04/10 02:05:04;;;;;;;2.92;2.22;;;;;;;;;;5327189;26;20079;-75
2024/04/10 02:07:30;;;;;;;1.27;1.13;;;;;;;;;;5329970;26;21072;-74
2024/04/10 02:09:55;;;;;;;2.83;1.75;;;;;;;;;;5329654;26;20084;-75
2024/04/10 02:12:21;;;;;;;2.28;1.98;;;;;;;;;;5320245;26;20004;-75
2024/04/10 02:14:47;;;;;;;1.73;1.50;;;;;;;;;;5298128;26;20000;-75
2024/04/10 02:17:12;;;;;;;3.95;2.30;;;;;;;;;;5325568;26;20043;-74
2024/04/10 02:19:38;;;;;;;3.65;3.13;;;;;;;;;;5325241;26;20005;-75
2024/04/10 02:22:06;;;;;;;1.30;1.10;;;;;;;;;;5328832;26;20073;-74
2024/04/10 02:24:32;;;;;;;1.05;0.85;;;;;;;;;;5326439;26;20020;-74
2024/04/10 02:26:57;;;;;;;2.05;1.67;;;;;;;;;;5328987;26;20057;-74
2024/04/10 02:29:23;;;;;;;2.78;1.83;;;;;;;;;;5324593;26;20456;-75
2024/04/10 02:31:49;;;;;;;0.20;0.20;;;;;;;;;;5326457;26;20006;-74
2024/04/10 02:34:15;;;;;;;2.10;1.50;;;;;;;;;;5329967;26;20117;-74
2024/04/10 02:36:41;;;;;;;2.05;1.85;;;;;;;;;;5321586;26;20052;-75
2024/04/10 02:39:08;;;;;;;2.75;2.42;;;;;;;;;;5321779;26;19997;-76
2024/04/10 02:41:34;;;;;;;4.03;2.72;;;;;;;;;;5298373;26;20325;-75
2024/04/10 02:44:00;;;;;;;4.28;2.08;;;;;;;;;;5324654;26;20079;-73
2024/04/10 02:46:26;;;;;;;4.75;3.78;;;;;;;;;;5332336;26;20016;-75
2024/04/10 02:48:52;;;;;;;3.30;2.78;;;;;;;;;;5334169;26;20013;-74
2024/04/10 02:51:17;;;;;;;1.83;1.70;;;;;;;;;;5327360;26;21364;-73
2024/04/10 02:53:43;;;;;;;1.73;1.33;;;;;;;;;;5329338;26;24787;-74
2024/04/10 02:56:09;;;;;;;1.70;1.60;;;;;;;;;;5322171;26;20001;-74
2024/04/10 02:58:35;;;;;;;0.80;0.80;;;;;;;;;;5328132;26;20368;-75
2024/04/10 03:01:00;;;;;;;8.13;2.58;;;;;;;;;;5329353;26;20041;-74
2024/04/10 03:03:26;;;;;;;3.58;1.33;;;;;;;;;;5321411;26;20387;-75
2024/04/10 03:06:05;;;;;;;2.75;2.40;;;;;;;;;;5322632;26;20005;-75
2024/04/10 03:08:31;;;;;;;2.40;2.20;;;;;;;;;;5297415;26;20005;-74
2024/04/10 03:10:57;;;;;;;1.70;1.30;;;;;;;;;;5327066;26;20016;-75
2024/04/10 03:13:23;;;;;;;5.85;3.35;;;;;;;;;;5303895;26;20007;-75
2024/04/10 03:15:49;;;;;;;0.30;0.30;;;;;;;;;;5330517;26;20001;-74
2024/04/10 03:18:15;;;;;;;1.88;1.65;;;;;;;;;;5345728;26;20419;-74
2024/04/10 03:20:41;;;;;;;1.15;1.05;;;;;;;;;;5295465;26;20005;-75
2024/04/10 03:23:06;;;;;;;2.22;1.83;;;;;;;;;;5330713;26;20016;-76
2024/04/10 03:25:33;;;;;;;2.10;1.98;;;;;;;;;;5344587;26;20016;-77
2024/04/10 03:27:59;;;;;;;3.17;2.88;;;;;;;;;;5336048;26;20017;-74
2024/04/10 03:30:26;;;;;;;2.47;1.88;;;;;;;;;;5341317;26;20399;-74
2024/04/10 03:32:51;;;;;;;3.55;3.17;;;;;;;;;;5338490;26;20012;-75
2024/04/10 03:35:18;;;;;;;0.30;0.30;;;;;;;;;;5326524;26;20553;-75
2024/04/10 03:37:44;;;;;;;1.70;1.40;;;;;;;;;;5338147;26;20032;-75
2024/04/10 03:40:11;;;;;;;2.00;1.48;;;;;;;;;;5328974;26;20004;-75
2024/04/10 03:42:37;;;;;;;2.80;2.55;;;;;;;;;;5303787;26;20071;-74
2024/04/10 03:45:03;;;;;;;0.50;0.50;;;;;;;;;;5335030;26;19996;-76
2024/04/10 03:47:29;;;;;;;2.28;2.08;;;;;;;;;;5336513;26;20037;-74
2024/04/10 03:49:54;;;;;;;1.42;1.33;;;;;;;;;;5306157;26;20130;-76
2024/04/10 03:52:20;;;;;;;2.67;2.15;;;;;;;;;;5323503;26;20037;-76
2024/04/10 03:54:46;;;;;;;0.40;0.40;;;;;;;;;;5306042;26;20007;-76
2024/04/10 03:57:11;;;;;;;4.18;2.78;;;;;;;;;;5339619;26;20000;-75
2024/04/10 03:59:37;;;;;;;2.47;2.28;;;;;;;;;;5330771;26;20023;-76
2024/04/10 04:02:03;;;;;;;1.02;1.02;;;;;;;;;;5297317;26;20019;-76
2024/04/10 04:04:29;;;;;;;1.85;1.38;;;;;;;;;;5338332;26;20472;-75
2024/04/10 04:06:55;;;;;;;0.30;0.30;;;;;;;;;;5344263;26;20013;-76
2024/04/10 04:09:21;;;;;;;1.33;1.23;;;;;;;;;;5329941;26;20083;-76
2024/04/10 04:11:47;;;;;;;1.30;0.52;;;;;;;;;;5333823;26;20445;-74
2024/04/10 04:14:12;;;;;;;2.08;1.90;;;;;;;;;;5338161;26;20011;-74
2024/04/10 04:16:39;;;;;;;2.00;1.80;;;;;;;;;;5336154;26;19997;-74
2024/04/10 04:19:05;;;;;;;0.20;0.20;;;;;;;;;;5346884;26;20004;-76
2024/04/10 04:21:31;;;;;;;0.28;0.28;;;;;;;;;;5351011;26;20433;-77
2024/04/10 04:24:00;;;;;;;1.42;1.30;;;;;;;;;;5328837;26;20052;-75
2024/04/10 04:26:25;;;;;;;2.78;2.55;;;;;;;;;;5334931;26;20011;-76
2024/04/10 04:28:51;;;;;;;3.45;2.58;;;;;;;;;;5332603;26;20353;-76
2024/04/10 04:31:17;;;;;;;3.47;3.17;;;;;;;;;;5311740;26;20001;-74
2024/04/10 04:33:43;;;;;;;2.08;1.88;;;;;;;;;;5334392;26;20004;-76
2024/04/10 04:36:10;;;;;;;2.60;2.38;;;;;;;;;;5344048;26;20333;-76
2024/04/10 04:38:36;;;;;;;11.32;3.92;;;;;;;;;;5305715;26;20012;-76
2024/04/10 04:41:03;;;;;;;2.85;2.75;;;;;;;;;;5330915;26;20032;-75
2024/04/10 04:43:28;;;;;;;0.20;0.20;;;;;;;;;;5336757;26;20013;-75
2024/04/10 04:45:54;;;;;;;3.65;2.42;;;;;;;;;;5342100;26;20043;-75
2024/04/10 04:48:20;;;;;;;3.33;2.33;;;;;;;;;;5334346;26;20008;-74
2024/04/10 04:50:46;;;;;;;3.35;2.78;;;;;;;;;;5332961;26;20001;-75
2024/04/10 04:53:12;;;;;;;1.75;1.65;;;;;;;;;;5293976;26;20396;-75
2024/04/10 04:55:38;;;;;;;0.60;0.60;;;;;;;;;;5341177;26;20091;-74
2024/04/10 04:58:05;;;;;;;6.68;4.47;;;;;;;;;;5338674;26;20001;-74
2024/04/10 05:00:31;;;;;;;0.30;0.30;;;;;;;;;;5339588;26;20021;-74
2024/04/10 05:02:57;;;;;;;0.22;0.22;;;;;;;;;;5341598;26;20004;-74
2024/04/10 05:05:23;;;;;;;0.55;0.50;;;;;;;;;;5329974;26;19997;-76
2024/04/10 05:07:49;;;;;;;7.32;3.38;;;;;;;;;;5329183;26;20012;-76
2024/04/10 05:10:15;;;;;;;0.82;0.82;;;;;;;;;;5334523;26;20055;-77
2024/04/10 05:12:41;;;;;;;0.65;0.65;;;;;;;;;;5345224;26;20039;-76
2024/04/10 05:15:12;;;;;;;2.42;1.98;;;;;;;;;;5335353;26;20008;-76
2024/04/10 05:17:41;;;;;;;0.63;0.63;;;;;;;;;;5303785;26;20038;-74
2024/04/10 05:20:14;;;;;;;3.72;1.85;;;;;;;;;;5286859;26;19994;-74
2024/04/10 05:24:23;;;;;;;3.45;2.28;;;;;;;;;;5452907;25;20468;-75
2024/04/10 05:26:49;;;;;;;3.42;3.08;;;;;;;;;;5362536;26;20285;-75
2024/04/10 05:29:15;;;;;;;1.60;1.50;;;;;;;;;;5339820;26;20103;-74
2024/04/10 05:31:42;;;;;;;2.47;2.25;;;;;;;;;;5341024;26;20393;-74
2024/04/10 05:34:07;;;;;;;8.27;3.90;;;;;;;;;;5342338;26;20535;-75
2024/04/10 05:36:33;;;;;;;6.50;3.50;;;;;;;;;;5338050;26;19997;-74
2024/04/10 05:39:00;;;;;;;2.92;1.77;;;;;;;;;;5328253;26;20051;-74
2024/04/10 05:41:26;;;;;;;4.55;2.15;;;;;;;;;;5350868;26;20074;-81
2024/04/10 05:43:51;;;;;;;1.13;1.02;;;;;;;;;;5334223;26;20001;-74
2024/04/10 05:46:17;;;;;;;1.88;1.70;;;;;;;;;;5348307;26;20134;-77
2024/04/10 05:48:43;;;;;;;2.78;2.42;;;;;;;;;;5369401;26;20036;-75
2024/04/10 05:51:09;;;;;;;2.65;2.25;;;;;;;;;;5382480;26;20024;-77
2024/04/10 05:53:34;;;;;;;3.15;2.30;;;;;;;;;;5379126;26;20004;-77
2024/04/10 05:56:06;;;;;;;3.55;3.25;;;;;;;;;;5377727;26;20007;-77
2024/04/10 05:58:35;;;;;;;1.50;1.40;;;;;;;;;;5389588;26;20011;-77
2024/04/10 06:01:05;;;;;;;5.68;4.28;;;;;;;;;;5369325;26;20820;-77
2024/04/10 06:03:30;;;;;;;2.70;2.35;;;;;;;;;;5380062;26;20016;-75
2024/04/10 06:05:58;;;;;;;11.32;2.72;;;;;;;;;;5384329;26;20448;-77
2024/04/10 06:08:23;;;;;;;1.77;1.10;;;;;;;;;;5383273;26;19996;-77
2024/04/10 06:10:52;;;;;;;4.28;3.50;;;;;;;;;;5375668;26;19992;-76
2024/04/10 06:13:17;;;;;;;7.00;1.95;;;;;;;;;;5382863;26;20008;-77
2024/04/10 06:15:43;;;;;;;1.20;1.10;;;;;;;;;;5385195;26;20011;-76
2024/04/10 06:18:09;;;;;;;1.77;1.63;;;;;;;;;;5394355;26;20451;-77
2024/04/10 06:20:34;;;;;;;1.75;1.10;;;;;;;;;;5386831;26;20000;-78
2024/04/10 06:23:00;;;;;;;3.05;2.35;;;;;;;;;;5382406;26;20016;-78
2024/04/10 06:25:26;;;;;;;1.48;1.35;;;;;;;;;;5385450;26;20004;-78
2024/04/10 06:27:52;;;;;;;0.98;0.93;;;;;;;;;;5384238;26;20037;-76
2024/04/10 06:30:18;;;;;;;1.13;1.02;;;;;;;;;;5381294;26;20000;-76
2024/04/10 06:32:43;;;;;;;2.55;2.35;;;;;;;;;;5412847;26;20376;-77
2024/04/10 06:35:09;;;;;;;1.65;1.40;;;;;;;;;;5368802;26;20004;-77
2024/04/10 06:37:35;;;;;;;4.05;3.67;;;;;;;;;;5364538;26;19996;-76
2024/04/10 06:40:01;;;;;;;2.00;1.38;;;;;;;;;;5368636;26;19988;-77
2024/04/10 06:42:26;;;;;;;0.55;0.47;;;;;;;;;;5368502;26;20077;-77
2024/04/10 06:44:52;;;;;;;5.68;1.75;;;;;;;;;;5380872;26;20554;-76
2024/04/10 06:47:18;;;;;;;2.03;1.40;;;;;;;;;;5359624;26;19997;-77
2024/04/10 06:49:43;;;;;;;2.67;1.48;;;;;;;;;;5357974;26;19999;-75
2024/04/10 06:52:09;;;;;;;10.30;3.33;;;;;;;;;;5355891;26;20112;-77
2024/04/10 06:54:35;;;;;;;2.33;2.13;;;;;;;;;;5366123;26;20778;-75
2024/04/10 06:57:00;;;;;;;0.80;0.80;;;;;;;;;;5358529;26;20116;-77
2024/04/10 06:59:27;;;;;;;1.23;0.93;;;;;;;;;;5351155;26;20012;-76
2024/04/10 07:01:52;;;;;;;0.90;0.52;;;;;;;;;;5358079;26;20024;-75
2024/04/10 07:04:18;;;;;;;1.35;0.93;;;;;;;;;;5368617;26;20003;-76
2024/04/10 07:06:44;;;;;;;2.17;1.98;;;;;;;;;;5366877;26;19989;-77
2024/04/10 07:09:10;;;;;;;0.43;0.43;;;;;;;;;;5372061;26;19989;-77
2024/04/10 07:11:36;;;;;;;0.80;0.73;;;;;;;;;;5366305;26;20000;-76
2024/04/10 07:14:02;;;;;;;1.15;0.70;;;;;;;;;;5359417;26;20012;-77
2024/04/10 07:16:27;;;;;;;0.43;0.43;;;;;;;;;;5366371;26;20016;-75
2024/04/10 07:18:55;;;;;;;0.90;0.88;;;;;;;;;;5362908;26;20068;-78
2024/04/10 07:21:21;;;;;;;0.88;0.85;;;;;;;;;;5370060;26;20004;-77
2024/04/10 07:23:48;;;;;;;0.45;0.40;;;;;;;;;;5372276;26;20011;-77
2024/04/10 07:26:13;;;;;;;2.47;0.75;;;;;;;;;;5366809;26;20000;-76
2024/04/10 07:28:46;;;;;;;0.28;0.28;;;;;;;;;;5366013;26;20004;-77
2024/04/10 07:31:12;;;;;;;1.88;1.75;;;;;;;;;;5356796;26;20349;-75
2024/04/10 07:33:38;;;;;;;1.25;0.88;;;;;;;;;;5345201;26;20015;-77
2024/04/10 07:36:14;;;;;;;1.27;0.90;;;;;;;;;;5362957;26;20004;-76
2024/04/10 07:38:40;;;;;;;0.20;0.20;;;;;;;;;;5370275;26;20332;-76
2024/04/10 07:41:07;;;;;;;3.28;2.13;;;;;;;;;;5369623;26;20008;-77
2024/04/10 07:43:34;;;;;;;1.50;0.73;;;;;;;;;;5366627;26;20000;-77
2024/04/10 07:46:15;;;;;;;0.60;0.60;;;;;;;;;;5362396;26;20012;-76
2024/04/10 07:48:42;;;;;;;0.45;0.40;;;;;;;;;;5351685;26;19996;-77
2024/04/10 07:51:09;;;;;;;0.47;0.47;;;;;;;;;;5360804;26;20032;-77
2024/04/10 07:53:38;;;;;;;0.57;0.57;;;;;;;;;;5371254;26;19992;-76
2024/04/10 07:56:05;;;;;;;1.90;1.52;;;;;;;;;;5370664;26;20008;-77
2024/04/10 07:58:31;;;;;;;0.45;0.45;;;;;;;;;;5356977;26;20000;-76
2024/04/10 08:00:59;;;;;;;0.38;0.38;;;;;;;;;;5361753;26;20097;-77
2024/04/10 08:03:25;;;;;;;0.70;0.63;;;;;;;;;;5349835;26;20032;-77
2024/04/10 08:05:52;;;;;;;0.30;0.30;;;;;;;;;;5370609;26;20004;-76
2024/04/10 08:08:18;;;;;;;0.30;0.30;;;;;;;;;;5362650;26;20024;-76
2024/04/10 08:10:44;;;;;;;0.20;0.20;;;;;;;;;;5352679;26;20548;-77
2024/04/10 08:13:11;;;;;;;0.50;0.50;;;;;;;;;;5355157;26;20051;-75
2024/04/10 08:15:37;;;;;;;0.20;0.20;;;;;;;;;;5363498;26;20022;-77
2024/04/10 08:18:03;;;;;;;2.08;1.10;;;;;;;;;;5364770;26;20004;-78
2024/04/10 08:20:29;;;;;;;1.20;0.70;;;;;;;;;;5362447;26;20313;-75
2024/04/10 08:22:55;;;;;;;0.40;0.40;;;;;;;;;;5368081;26;20001;-76
2024/04/10 08:25:20;;;;;;;0.82;0.80;;;;;;;;;;5347843;26;20385;-77
2024/04/10 08:27:46;;;;;;;0.63;0.43;;;;;;;;;;5362895;26;20439;-77
2024/04/10 08:30:12;;;;;;;0.22;0.22;;;;;;;;;;5355699;26;19996;-77
2024/04/10 08:32:37;;;;;;;3.40;1.00;;;;;;;;;;5362622;26;20001;-76
2024/04/10 08:35:04;;;;;;;1.27;1.17;;;;;;;;;;5366531;26;20032;-76
2024/04/10 08:37:30;;;;;;;0.57;0.55;;;;;;;;;;5371388;26;20008;-75
2024/04/10 08:39:56;;;;;;;1.52;1.05;;;;;;;;;;5369435;26;20439;-75
2024/04/10 08:42:21;;;;;;;0.38;0.30;;;;;;;;;;5361669;26;20003;-77
2024/04/10 08:44:47;;;;;;;1.20;0.88;;;;;;;;;;5363468;26;21713;-76
2024/04/10 08:47:13;;;;;;;0.20;0.20;;;;;;;;;;5361186;26;20347;-77
2024/04/10 08:49:39;;;;;;;0.63;0.47;;;;;;;;;;5365882;26;20011;-77
2024/04/10 08:52:08;;;;;;;0.15;0.15;;;;;;;;;;5355225;26;20068;-76
2024/04/10 08:54:37;;;;;;;0.57;0.57;;;;;;;;;;5368909;26;20008;-76
2024/04/10 08:57:06;;;;;;;1.60;1.52;;;;;;;;;;5356937;26;20004;-75
2024/04/10 08:59:33;;;;;;;0.70;0.70;;;;;;;;;;5366462;26;19996;-76
2024/04/10 09:02:01;;;;;;;7.57;0.65;;;;;;;;;;5367149;26;20309;-76
2024/04/10 09:04:27;;;;;;;0.30;0.20;;;;;;;;;;5394795;26;19997;-76
2024/04/10 09:07:03;;;;;;;0.20;0.20;;;;;;;;;;5365899;26;20030;-76
2024/04/10 09:09:29;;;;;;;1.92;1.83;;;;;;;;;;5334909;26;20074;-77
2024/04/10 09:11:55;;;;;;;0.10;0.10;;;;;;;;;;5357496;26;20008;-77
2024/04/10 09:14:20;;;;;;;1.00;0.60;;;;;;;;;;5352054;26;20476;-77
2024/04/10 09:16:46;;;;;;;8.73;0.95;;;;;;;;;;5357832;26;20015;-75
2024/04/10 09:19:15;;;;;;;0.60;0.32;;;;;;;;;;5367065;26;20016;-77
2024/04/10 09:21:42;;;;;;;0.73;0.70;;;;;;;;;;5372156;26;20000;-76
2024/04/10 09:24:10;;;;;;;2.20;1.23;;;;;;;;;;5363987;26;20040;-76
2024/04/10 09:26:48;;;;;;;0.25;0.25;;;;;;;;;;5366462;26;20010;-76
2024/04/10 09:29:18;;;;;;;3.17;0.75;;;;;;;;;;5379687;26;20059;-77
2024/04/10 09:31:44;;;;;;;0.80;0.75;;;;;;;;;;5361715;26;20004;-77
2024/04/10 09:34:11;;;;;;;3.15;2.17;;;;;;;;;;5357214;26;20078;-77
2024/04/10 09:36:37;;;;;;;1.55;0.57;;;;;;;;;;5368813;26;20282;-76
2024/04/10 09:39:08;;;;;;;0.82;0.55;;;;;;;;;;5360412;26;20015;-77
2024/04/10 09:41:38;;;;;;;0.20;0.20;;;;;;;;;;5362710;26;20008;-76
2024/04/10 09:44:05;;;;;;;0.52;0.52;;;;;;;;;;5334063;26;20016;-76
2024/04/10 09:46:36;;;;;;;1.20;0.70;;;;;;;;;;5334506;26;20053;-77
2024/04/10 09:49:11;;;;;;;0.20;0.20;;;;;;;;;;5358607;26;20001;-77
2024/04/10 09:51:41;;;;;;;0.20;0.20;;;;;;;;;;5368934;26;20024;-77
2024/04/10 09:54:08;;;;;;;1.48;1.10;;;;;;;;;;5357003;26;20081;-76
2024/04/10 09:56:35;;;;;;;0.45;0.35;;;;;;;;;;5355849;26;20032;-75
2024/04/10 09:59:03;;;;;;;0.73;0.55;;;;;;;;;;5330522;26;20048;-76
2024/04/10 10:01:29;;;;;;;0.20;0.20;;;;;;;;;;5367312;26;20107;-78
2024/04/10 10:03:58;;;;;;;0.20;0.20;;;;;;;;;;5370463;26;20008;-79
2024/04/10 10:06:28;;;;;;;0.50;0.43;;;;;;;;;;5369013;26;20359;-78
2024/04/10 10:08:55;;;;;;;0.40;0.35;;;;;;;;;;5339435;26;20036;-77
2024/04/10 10:11:22;;;;;;;0.50;0.30;;;;;;;;;;5359781;26;20012;-77
2024/04/10 10:14:02;;;;;;;1.85;1.65;;;;;;;;;;5372198;26;20008;-75
2024/04/10 10:16:28;;;;;;;0.68;0.57;;;;;;;;;;5340070;26;19996;-78
2024/04/10 10:19:00;;;;;;;0.75;0.75;;;;;;;;;;5372159;26;20035;-77
2024/04/10 10:21:27;;;;;;;0.32;0.32;;;;;;;;;;5341262;26;20008;-78
2024/04/10 10:23:56;;;;;;;0.50;0.50;;;;;;;;;;5364708;26;20078;-77
2024/04/10 10:26:22;;;;;;;0.30;0.30;;;;;;;;;;5340410;26;20639;-76
2024/04/10 10:28:47;;;;;;;1.30;0.95;;;;;;;;;;5357620;26;20076;-77
2024/04/10 10:31:19;;;;;;;0.22;0.17;;;;;;;;;;5363565;26;20004;-77
2024/04/10 10:33:45;;;;;;;0.50;0.40;;;;;;;;;;5362668;26;20001;-76
2024/04/10 10:36:11;;;;;;;0.30;0.30;;;;;;;;;;5373029;26;20366;-76
2024/04/10 10:38:37;;;;;;;1.45;1.00;;;;;;;;;;5368678;26;20032;-76
2024/04/10 10:41:10;;;;;;;2.22;1.20;;;;;;;;;;5371914;26;20077;-75
2024/04/10 10:43:37;;;;;;;0.30;0.30;;;;;;;;;;5368508;26;20000;-75
2024/04/10 10:46:08;;;;;;;0.20;0.20;;;;;;;;;;5373716;26;20081;-77
2024/04/10 10:48:33;;;;;;;0.43;0.30;;;;;;;;;;5371592;26;20004;-78
2024/04/10 10:50:59;;;;;;;0.70;0.70;;;;;;;;;;5362572;26;20012;-77
2024/04/10 10:53:26;;;;;;;0.75;0.75;;;;;;;;;;5372733;26;19997;-77
2024/04/10 10:55:51;;;;;;;0.45;0.28;;;;;;;;;;5338717;26;20008;-77
2024/04/10 10:58:17;;;;;;;3.78;1.83;;;;;;;;;;5333139;26;21002;-76
2024/04/10 11:00:44;;;;;;;1.38;1.27;;;;;;;;;;5355255;26;20579;-77
2024/04/10 11:03:10;;;;;;;0.50;0.40;;;;;;;;;;5338028;26;19996;-78
2024/04/10 11:05:36;;;;;;;0.70;0.63;;;;;;;;;;5372710;26;20061;-78
2024/04/10 11:08:02;;;;;;;0.77;0.45;;;;;;;;;;5372471;26;20074;-77
2024/04/10 11:10:28;;;;;;;0.40;0.40;;;;;;;;;;5365561;26;20432;-77
2024/04/10 11:12:58;;;;;;;0.32;0.32;;;;;;;;;;5363834;26;20008;-76
2024/04/10 11:15:23;;;;;;;0.20;0.20;;;;;;;;;;5333468;26;20007;-77
2024/04/10 11:18:00;;;;;;;0.40;0.35;;;;;;;;;;5362429;26;20334;-75
2024/04/10 11:20:25;;;;;;;0.50;0.40;;;;;;;;;;5359586;26;19996;-76
2024/04/10 11:22:57;;;;;;;0.43;0.38;;;;;;;;;;5353850;26;20008;-75
2024/04/10 11:25:23;;;;;;;0.20;0.20;;;;;;;;;;5367313;26;20418;-76
2024/04/10 11:27:49;;;;;;;0.22;0.22;;;;;;;;;;5369306;26;20000;-76
2024/04/10 11:30:15;;;;;;;0.20;0.20;;;;;;;;;;5362392;26;20032;-75
2024/04/10 11:32:41;;;;;;;0.10;0.10;;;;;;;;;;5372172;26;20004;-77
2024/04/10 11:35:10;;;;;;;0.95;0.70;;;;;;;;;;5359014;26;20044;-76
2024/04/10 11:37:35;;;;;;;0.85;0.85;;;;;;;;;;5363957;26;20128;-76
2024/04/10 11:40:01;;;;;;;0.20;0.20;;;;;;;;;;5373773;26;19997;-78
2024/04/10 11:42:27;;;;;;;0.65;0.65;;;;;;;;;;5364560;26;20000;-76
2024/04/10 11:44:53;;;;;;;0.60;0.60;;;;;;;;;;5338626;26;20289;-77
2024/04/10 11:47:19;;;;;;;0.65;0.50;;;;;;;;;;5371601;26;19989;-75
2024/04/10 11:49:44;;;;;;;0.68;0.68;;;;;;;;;;5365080;26;20011;-75
2024/04/10 11:52:10;;;;;;;1.73;0.95;;;;;;;;;;5364962;26;19996;-75
2024/04/10 11:54:36;;;;;;;0.40;0.40;;;;;;;;;;5377491;26;20451;-76
2024/04/10 11:57:05;;;;;;;0.80;0.80;;;;;;;;;;5360695;26;20326;-76
2024/04/10 11:59:32;;;;;;;0.32;0.22;;;;;;;;;;5364182;26;20008;-76
2024/04/10 12:01:57;;;;;;;1.23;1.10;;;;;;;;;;5361053;26;19997;-76
2024/04/10 12:04:23;;;;;;;0.20;0.20;;;;;;;;;;5370628;26;20015;-76
2024/04/10 12:06:49;;;;;;;0.40;0.40;;;;;;;;;;5357598;26;19992;-76
2024/04/10 12:09:14;;;;;;;0.35;0.35;;;;;;;;;;5334527;26;20018;-77
2024/04/10 12:11:41;;;;;;;0.20;0.20;;;;;;;;;;5370353;26;20015;-76
2024/04/10 12:14:07;;;;;;;2.08;1.17;;;;;;;;;;5340163;26;19996;-76
2024/04/10 12:16:33;;;;;;;0.68;0.50;;;;;;;;;;5370861;26;20008;-76
2024/04/10 12:18:59;;;;;;;0.20;0.20;;;;;;;;;;5372033;26;20336;-76
2024/04/10 12:21:24;;;;;;;1.77;0.55;;;;;;;;;;5370042;26;19996;-77
2024/04/10 12:23:50;;;;;;;1.58;0.73;;;;;;;;;;5369417;26;20003;-77
2024/04/10 12:26:16;;;;;;;0.65;0.28;;;;;;;;;;5368783;26;20340;-76
2024/04/10 12:28:41;;;;;;;0.20;0.20;;;;;;;;;;5334405;26;20000;-77
2024/04/10 12:31:08;;;;;;;0.45;0.45;;;;;;;;;;5368530;26;20000;-76
2024/04/10 12:33:36;;;;;;;0.60;0.50;;;;;;;;;;5366153;26;20073;-77
2024/04/10 12:38:49;;;;;;;0.28;0.20;;;;;;;;;;5367534;26;20015;-76
2024/04/10 12:41:14;;;;;;;1.55;0.95;;;;;;;;;;5346621;26;20014;-77
2024/04/10 12:43:42;;;;;;;0.45;0.35;;;;;;;;;;5355542;26;19992;-77
2024/04/10 12:46:08;;;;;;;1.13;1.02;;;;;;;;;;5372525;26;20304;-77
2024/04/10 12:48:34;;;;;;;0.28;0.28;;;;;;;;;;5371244;26;20000;-77
2024/04/10 12:51:00;;;;;;;0.40;0.40;;;;;;;;;;5337870;26;20004;-76
2024/04/10 12:53:25;;;;;;;0.60;0.57;;;;;;;;;;5359261;26;20742;-76
2024/04/10 12:55:53;;;;;;;0.35;0.32;;;;;;;;;;5370069;26;20111;-76
2024/04/10 12:58:18;;;;;;;1.30;0.90;;;;;;;;;;5363252;26;20016;-76
2024/04/10 13:00:44;;;;;;;10.15;1.20;;;;;;;;;;5361738;26;20004;-77
2024/04/10 13:03:10;;;;;;;0.20;0.20;;;;;;;;;;5371512;26;19992;-77
2024/04/10 13:05:36;;;;;;;0.15;0.15;;;;;;;;;;5356570;26;19996;-78
2024/04/10 13:08:03;;;;;;;0.15;0.15;;;;;;;;;;5361589;26;20019;-77
2024/04/10 13:10:29;;;;;;;1.85;0.47;;;;;;;;;;5368389;26;20004;-75
2024/04/10 13:12:55;;;;;;;0.75;0.63;;;;;;;;;;5368169;26;20459;-78
2024/04/10 13:15:22;;;;;;;0.30;0.30;;;;;;;;;;5367861;26;19988;-77
2024/04/10 13:17:50;;;;;;;1.05;0.80;;;;;;;;;;5340931;26;20491;-77
2024/04/10 13:20:16;;;;;;;0.40;0.40;;;;;;;;;;5366636;26;20443;-76
2024/04/10 13:22:41;;;;;;;0.10;0.10;;;;;;;;;;5368419;26;20043;-76
2024/04/10 13:25:07;;;;;;;0.30;0.30;;;;;;;;;;5354908;26;20012;-77
2024/04/10 13:27:33;;;;;;;0.40;0.40;;;;;;;;;;5348810;26;20447;-76
2024/04/10 13:29:58;;;;;;;2.15;0.82;;;;;;;;;;5368718;26;19992;-76
2024/04/10 13:32:24;;;;;;;39.40;7.68;;;;;;;;;;5371637;26;20008;-76
2024/04/10 13:34:50;;;;;;;2.65;1.10;;;;;;;;;;5370316;26;20073;-77
2024/04/10 13:37:16;;;;;;;0.40;0.30;;;;;;;;;;5367293;26;19999;-76
2024/04/10 13:39:42;;;;;;;1.00;0.88;;;;;;;;;;5359026;26;20344;-78
2024/04/10 13:42:07;;;;;;;0.88;0.75;;;;;;;;;;5373812;26;20004;-76
2024/04/10 13:44:33;;;;;;;0.20;0.20;;;;;;;;;;5341224;26;20012;-76
2024/04/10 13:46:59;;;;;;;0.68;0.68;;;;;;;;;;5375651;26;20036;-77
2024/04/10 13:49:25;;;;;;;2.67;2.33;;;;;;;;;;5361210;26;20020;-76
2024/04/10 13:51:50;;;;;;;0.30;0.30;;;;;;;;;;5366079;26;20087;-77
2024/04/10 13:54:16;;;;;;;0.52;0.43;;;;;;;;;;5369812;26;20000;-76
2024/04/10 13:56:42;;;;;;;2.40;2.20;;;;;;;;;;5371027;26;20000;-77
2024/04/10 13:59:08;;;;;;;0.95;0.85;;;;;;;;;;5365399;26;19992;-75
2024/04/10 14:01:35;;;;;;;0.20;0.20;;;;;;;;;;5363404;26;19993;-76
2024/04/10 14:04:01;;;;;;;0.40;0.40;;;;;;;;;;5369386;26;21487;-76
2024/04/10 14:06:28;;;;;;;0.50;0.40;;;;;;;;;;5369295;26;20000;-75
2024/04/10 14:08:55;;;;;;;0.68;0.60;;;;;;;;;;5333513;26;20386;-76
2024/04/10 14:11:20;;;;;;;4.57;2.47;;;;;;;;;;5334073;26;20001;-76
2024/04/10 14:13:47;;;;;;;0.30;0.25;;;;;;;;;;5370039;26;20023;-76
2024/04/10 14:16:13;;;;;;;0.20;0.20;;;;;;;;;;5360263;26;20027;-76
2024/04/10 14:18:41;;;;;;;0.20;0.20;;;;;;;;;;5368053;26;20000;-75
2024/04/10 14:21:07;;;;;;;0.68;0.57;;;;;;;;;;5367914;26;20000;-76
2024/04/10 14:23:33;;;;;;;1.38;1.15;;;;;;;;;;5369078;26;19997;-75
2024/04/10 14:26:02;;;;;;;1.58;0.98;;;;;;;;;;5365927;26;20102;-76
2024/04/10 14:28:28;;;;;;;0.40;0.40;;;;;;;;;;5364280;26;20000;-78
2024/04/10 14:31:07;;;;;;;0.30;0.30;;;;;;;;;;5330603;26;21621;-78
2024/04/10 14:33:36;;;;;;;2.40;1.50;;;;;;;;;;5360482;26;20000;-77
2024/04/10 14:36:03;;;;;;;0.20;0.20;;;;;;;;;;5368500;26;20004;-76
2024/04/10 14:38:29;;;;;;;0.57;0.57;;;;;;;;;;5360658;26;20009;-76
2024/04/10 14:40:55;;;;;;;0.85;0.82;;;;;;;;;;5363061;26;20016;-78
2024/04/10 14:43:21;;;;;;;1.00;0.82;;;;;;;;;;5364489;26;20022;-77